HL124 RKSS-RKSS
Flight info
| Callsign | HL124 |
|---|---|
| Flight time | 0h 21m |
| Altitude | 4000 |
| Route | SEL1W SEL |
| Aircraft | C25C/M-SDE2E3FGHRWXY/LB1 |
Departure
| Time | 2026-05-01 08:10 |
|---|---|
| Airport | Gimpo International Airport (RKSS) |
Arrival
| Time | 2026-05-01 08:31 |
|---|---|
| Airport | Gimpo International Airport (RKSS) |
| Time | Latitude | Longitude | Altitude | Speed | Heading |
|---|---|---|---|---|---|
| 2026-05-01 08:09 | 37.43372 | 126.48471 | 597 ft | 112 kts | 315° |
| 2026-05-01 08:10 | 37.44829 | 126.47089 | 1248 ft | 165 kts | 316° |
| 2026-05-01 08:10 | 37.46791 | 126.44921 | 2626 ft | 204 kts | 315° |
| 2026-05-01 08:11 | 37.49358 | 126.42836 | 4024 ft | 223 kts | 329° |
| 2026-05-01 08:11 | 37.52102 | 126.40845 | 4011 ft | 231 kts | 329° |
| 2026-05-01 08:12 | 37.54800 | 126.38632 | 4007 ft | 234 kts | 308° |
| 2026-05-01 08:12 | 37.55353 | 126.36705 | 4013 ft | 238 kts | 283° |
| 2026-05-01 08:12 | 37.55281 | 126.32598 | 4010 ft | 249 kts | 242° |
| 2026-05-01 08:13 | 37.53925 | 126.31218 | 4012 ft | 260 kts | 205° |
| 2026-05-01 08:13 | 37.52118 | 126.31052 | 4014 ft | 265 kts | 176° |
| 2026-05-01 08:13 | 37.48460 | 126.31078 | 4024 ft | 262 kts | 184° |
| 2026-05-01 08:14 | 37.46643 | 126.31033 | 4028 ft | 261 kts | 184° |
| 2026-05-01 08:14 | 37.44824 | 126.30989 | 4026 ft | 262 kts | 184° |
| 2026-05-01 08:14 | 37.43001 | 126.30946 | 4029 ft | 262 kts | 184° |
| 2026-05-01 08:14 | 37.41182 | 126.30902 | 4027 ft | 260 kts | 184° |
| 2026-05-01 08:15 | 37.39390 | 126.30867 | 4032 ft | 255 kts | 184° |
| 2026-05-01 08:15 | 37.35912 | 126.30813 | 4015 ft | 252 kts | 170° |
| 2026-05-01 08:15 | 37.34457 | 126.31996 | 4010 ft | 254 kts | 128° |
| 2026-05-01 08:16 | 37.33826 | 126.34021 | 4013 ft | 249 kts | 96° |
| 2026-05-01 08:16 | 37.33633 | 126.36174 | 4018 ft | 247 kts | 92° |
| 2026-05-01 08:16 | 37.33499 | 126.38320 | 4015 ft | 246 kts | 91° |
| 2026-05-01 08:16 | 37.33375 | 126.40462 | 4012 ft | 245 kts | 91° |
| 2026-05-01 08:17 | 37.33251 | 126.42592 | 4013 ft | 244 kts | 91° |
| 2026-05-01 08:17 | 37.33127 | 126.44714 | 4012 ft | 244 kts | 90° |
| 2026-05-01 08:17 | 37.32997 | 126.46853 | 4016 ft | 247 kts | 91° |
| 2026-05-01 08:17 | 37.32867 | 126.49014 | 4017 ft | 249 kts | 91° |
| 2026-05-01 08:18 | 37.32737 | 126.51190 | 4018 ft | 250 kts | 91° |
| 2026-05-01 08:18 | 37.32469 | 126.55564 | 4025 ft | 252 kts | 91° |
| 2026-05-01 08:19 | 37.32202 | 126.59956 | 4031 ft | 253 kts | 91° |
| 2026-05-01 08:19 | 37.32061 | 126.62160 | 4029 ft | 253 kts | 91° |
| 2026-05-01 08:19 | 37.31921 | 126.64362 | 4031 ft | 253 kts | 91° |
| 2026-05-01 08:19 | 37.31782 | 126.66563 | 4028 ft | 253 kts | 90° |
| 2026-05-01 08:20 | 37.31638 | 126.68770 | 4019 ft | 253 kts | 91° |
| 2026-05-01 08:20 | 37.31492 | 126.70966 | 4020 ft | 252 kts | 91° |
| 2026-05-01 08:20 | 37.31347 | 126.73164 | 4019 ft | 252 kts | 91° |
| 2026-05-01 08:20 | 37.31199 | 126.75346 | 4015 ft | 249 kts | 91° |
| 2026-05-01 08:21 | 37.31055 | 126.77493 | 4017 ft | 244 kts | 91° |
| 2026-05-01 08:21 | 37.30907 | 126.79607 | 4007 ft | 241 kts | 91° |
| 2026-05-01 08:21 | 37.30761 | 126.81693 | 4007 ft | 238 kts | 91° |
| 2026-05-01 08:21 | 37.30619 | 126.83755 | 4004 ft | 236 kts | 91° |
| 2026-05-01 08:22 | 37.30484 | 126.85732 | 3996 ft | 236 kts | 91° |
| 2026-05-01 08:22 | 37.30337 | 126.87783 | 3995 ft | 236 kts | 91° |
| 2026-05-01 08:22 | 37.30188 | 126.89816 | 4007 ft | 232 kts | 91° |
| 2026-05-01 08:22 | 37.30052 | 126.91841 | 4002 ft | 233 kts | 91° |
| 2026-05-01 08:23 | 37.29914 | 126.93868 | 3999 ft | 233 kts | 91° |
| 2026-05-01 08:23 | 37.29769 | 126.95896 | 3994 ft | 233 kts | 91° |
| 2026-05-01 08:23 | 37.29803 | 126.97890 | 3985 ft | 225 kts | 65° |
| 2026-05-01 08:23 | 37.30535 | 126.99573 | 3990 ft | 219 kts | 52° |
| 2026-05-01 08:24 | 37.31351 | 127.01189 | 3997 ft | 219 kts | 51° |
| 2026-05-01 08:24 | 37.32408 | 127.02462 | 3981 ft | 207 kts | 16° |
| 2026-05-01 08:24 | 37.33786 | 127.02491 | 3996 ft | 198 kts | 345° |
| 2026-05-01 08:24 | 37.35118 | 127.02059 | 4001 ft | 198 kts | 342° |
| 2026-05-01 08:25 | 37.36440 | 127.01562 | 4003 ft | 199 kts | 341° |
| 2026-05-01 08:25 | 37.37714 | 127.00888 | 4009 ft | 199 kts | 330° |
| 2026-05-01 08:25 | 37.38872 | 126.99940 | 4002 ft | 199 kts | 320° |
| 2026-05-01 08:25 | 37.39874 | 126.98742 | 4000 ft | 199 kts | 315° |
| 2026-05-01 08:26 | 37.40861 | 126.97521 | 3999 ft | 199 kts | 315° |
| 2026-05-01 08:26 | 37.41843 | 126.96297 | 3913 ft | 200 kts | 315° |
| 2026-05-01 08:26 | 37.42814 | 126.95080 | 3647 ft | 196 kts | 315° |
| 2026-05-01 08:26 | 37.43769 | 126.93888 | 3287 ft | 187 kts | 315° |
| 2026-05-01 08:27 | 37.44648 | 126.92803 | 2855 ft | 166 kts | 313° |
| 2026-05-01 08:27 | 37.45402 | 126.91854 | 2659 ft | 139 kts | 314° |
| 2026-05-01 08:27 | 37.46062 | 126.91028 | 2603 ft | 128 kts | 313° |
| 2026-05-01 08:27 | 37.46679 | 126.90262 | 2585 ft | 122 kts | 313° |
| 2026-05-01 08:28 | 37.47265 | 126.89530 | 2595 ft | 115 kts | 313° |
| 2026-05-01 08:28 | 37.47831 | 126.88821 | 2409 ft | 121 kts | 312° |
| 2026-05-01 08:28 | 37.48446 | 126.88054 | 2137 ft | 128 kts | 311° |
| 2026-05-01 08:28 | 37.49104 | 126.87224 | 1735 ft | 138 kts | 310° |
| 2026-05-01 08:29 | 37.49791 | 126.86373 | 1453 ft | 136 kts | 310° |
| 2026-05-01 08:29 | 37.50451 | 126.85552 | 1266 ft | 130 kts | 312° |
| 2026-05-01 08:29 | 37.51033 | 126.84811 | 1104 ft | 112 kts | 310° |
| 2026-05-01 08:29 | 37.51577 | 126.84140 | 957 ft | 108 kts | 309° |
| 2026-05-01 08:30 | 37.52090 | 126.83492 | 822 ft | 101 kts | 308° |
| 2026-05-01 08:30 | 37.52595 | 126.82876 | 690 ft | 104 kts | 309° |
| 2026-05-01 08:30 | 37.53144 | 126.82225 | 594 ft | 110 kts | 308° |
| 2026-05-01 08:30 | 37.53683 | 126.81514 | 456 ft | 113 kts | 310° |
| 2026-05-01 08:31 | 37.54248 | 126.80819 | 307 ft | 114 kts | 309° |
| 2026-05-01 08:31 | 37.54789 | 126.80135 | 140 ft | 104 kts | 306° |
| 2026-05-01 08:31 | 37.55252 | 126.79537 | 58 ft | 83 kts | 317° |
| 2026-05-01 08:31 | 37.55482 | 126.79247 | 58 ft | 24 kts | 317° |
| 2026-05-01 08:32 | 37.55545 | 126.79123 | 62 ft | 10 kts | 243° |
| 2026-05-01 08:32 | 37.55488 | 126.79050 | 60 ft | 12 kts | 225° |
| 2026-05-01 08:32 | 37.55476 | 126.79035 | 58 ft | 0 kts | 227° |
| 2026-05-01 08:32 | 37.55460 | 126.78987 | 60 ft | 11 kts | 253° |
| 2026-05-01 08:33 | 37.55466 | 126.78888 | 58 ft | 12 kts | 310° |
| 2026-05-01 08:33 | 37.55523 | 126.78817 | 57 ft | 11 kts | 316° |
| 2026-05-01 08:33 | 37.55555 | 126.78776 | 55 ft | 5 kts | 300° |
| 2026-05-01 08:33 | 37.55548 | 126.78744 | 60 ft | 4 kts | 233° |
| 2026-05-01 08:34 | 37.55532 | 126.78724 | 60 ft | 0 kts | 222° |